createdAt,value
2019-03-23T00:00:19.345Z,22.8
2019-03-23T00:03:25.278Z,22.8
2019-03-23T00:06:31.253Z,22.8
2019-03-23T00:09:37.134Z,22.8
2019-03-23T00:12:43.089Z,22.8
2019-03-23T00:15:49.073Z,22.8
2019-03-23T00:18:55.062Z,22.8
2019-03-23T00:22:01.000Z,22.8
2019-03-23T00:25:07.008Z,22.7
2019-03-23T00:28:12.992Z,22.7
2019-03-23T00:31:18.851Z,22.7
2019-03-23T00:34:24.811Z,22.7
2019-03-23T00:37:30.818Z,22.7
2019-03-23T00:40:36.732Z,22.7
2019-03-23T00:43:42.716Z,22.7
2019-03-23T00:46:48.748Z,22.7
2019-03-23T00:49:54.613Z,22.6
2019-03-23T00:53:03.523Z,22.6
2019-03-23T00:56:09.395Z,22.6
2019-03-23T00:59:17.750Z,22.6
2019-03-23T01:02:23.674Z,22.6
2019-03-23T01:05:29.588Z,22.6
2019-03-23T01:08:35.491Z,22.6
2019-03-23T01:11:41.460Z,22.6
2019-03-23T01:14:47.459Z,22.6
2019-03-23T01:17:53.366Z,22.6
2019-03-23T01:20:59.362Z,22.6
2019-03-23T01:24:05.291Z,22.6
2019-03-23T01:27:11.218Z,22.5
2019-03-23T01:30:17.167Z,22.5
2019-03-23T01:33:34.225Z,22.5
2019-03-23T01:36:40.174Z,22.5
2019-03-23T01:39:46.044Z,22.5
2019-03-23T01:42:52.004Z,22.5
2019-03-23T01:45:58.033Z,22.5
2019-03-23T01:49:03.993Z,22.4
2019-03-23T01:52:09.918Z,22.4
2019-03-23T01:55:15.930Z,22.4
2019-03-23T01:58:21.932Z,22.4
2019-03-23T02:01:27.938Z,22.4
2019-03-23T02:04:33.862Z,22.4
2019-03-23T02:07:39.853Z,22.4
2019-03-23T02:10:45.846Z,22.4
2019-03-23T02:13:54.651Z,22.4
2019-03-23T02:17:00.648Z,22.4
2019-03-23T02:20:06.673Z,22.4
2019-03-23T02:23:12.749Z,22.4
2019-03-23T02:26:18.637Z,22.4
2019-03-23T02:29:24.630Z,22.4
2019-03-23T02:32:30.786Z,22.4
2019-03-23T02:35:36.761Z,22.3
2019-03-23T02:38:45.438Z,22.3
2019-03-23T02:41:51.473Z,22.3
2019-03-23T02:44:57.487Z,22.3
2019-03-23T02:48:03.610Z,22.3
2019-03-23T02:51:12.297Z,22.3
2019-03-23T02:54:18.309Z,22.3
2019-03-23T02:57:24.453Z,22.3
2019-03-23T03:00:30.381Z,22.3
2019-03-23T03:03:36.370Z,22.3
2019-03-23T03:06:42.240Z,22.2
2019-03-23T03:09:48.207Z,22.2
2019-03-23T03:12:54.160Z,22.2
2019-03-23T03:16:00.016Z,22.2
2019-03-23T03:19:06.020Z,22.2
2019-03-23T03:22:11.937Z,22.2
2019-03-23T03:25:17.863Z,22.2
2019-03-23T03:28:23.855Z,22.2
2019-03-23T03:31:29.766Z,22.2
2019-03-23T03:34:35.862Z,22.2
2019-03-23T03:37:55.310Z,22.2
2019-03-23T03:41:02.807Z,22.1
2019-03-23T03:44:08.846Z,22.2
2019-03-23T03:47:14.873Z,22.2
2019-03-23T03:50:20.878Z,22.1
2019-03-23T03:53:26.904Z,22.1
2019-03-23T03:56:32.836Z,22.1
2019-03-23T03:59:38.758Z,22.1
2019-03-23T04:02:44.823Z,22.1
2019-03-23T04:05:50.797Z,22.1
2019-03-23T04:08:56.798Z,22.1
2019-03-23T04:12:02.748Z,22.1
2019-03-23T04:15:08.840Z,22.1
2019-03-23T04:18:14.829Z,22.1
2019-03-23T04:21:20.815Z,22.1
2019-03-23T04:24:26.699Z,22.1
2019-03-23T04:27:32.717Z,22.1
2019-03-23T04:30:38.619Z,22.1
2019-03-23T04:33:44.563Z,22.1
2019-03-23T04:36:50.489Z,22.1
2019-03-23T04:39:56.556Z,22.1
2019-03-23T04:43:02.450Z,22.1
2019-03-23T04:46:08.363Z,22.1
2019-03-23T04:49:14.280Z,22.2
2019-03-23T04:52:20.209Z,22.2
2019-03-23T04:55:26.095Z,22.2
2019-03-23T04:58:32.141Z,22.3
2019-03-23T05:01:38.061Z,22.3
2019-03-23T05:04:43.968Z,22.4
2019-03-23T05:07:49.833Z,22.4
2019-03-23T05:10:55.843Z,22.4
2019-03-23T05:14:04.455Z,22.5
2019-03-23T05:17:10.360Z,22.6
2019-03-23T05:20:16.259Z,22.7
2019-03-23T05:23:22.216Z,22.8
2019-03-23T05:26:28.168Z,22.8
2019-03-23T05:29:34.085Z,22.9
2019-03-23T05:32:40.132Z,22.9
2019-03-23T05:35:46.038Z,23
2019-03-23T05:38:52.065Z,23
2019-03-23T05:41:57.953Z,23
2019-03-23T05:45:03.887Z,23.1
2019-03-23T05:48:09.877Z,23.1
2019-03-23T05:51:15.801Z,23.2
2019-03-23T05:54:21.728Z,23.2
2019-03-23T05:57:27.873Z,23.2
2019-03-23T06:00:33.892Z,23.3
2019-03-23T06:03:39.810Z,23.3
2019-03-23T06:06:45.827Z,23.3
2019-03-23T06:09:51.691Z,23.3
2019-03-23T06:12:57.631Z,23.4
2019-03-23T06:16:03.543Z,23.4
2019-03-23T06:19:09.526Z,23.4
2019-03-23T06:22:15.508Z,23.5
2019-03-23T06:25:21.406Z,23.5
2019-03-23T06:28:27.369Z,23.5
2019-03-23T06:31:33.396Z,23.5
2019-03-23T06:34:39.280Z,23.6
2019-03-23T06:37:45.242Z,23.6
2019-03-23T06:40:51.154Z,23.6
2019-03-23T06:43:57.120Z,23.7
2019-03-23T06:47:03.066Z,23.7
2019-03-23T06:50:09.205Z,23.7
2019-03-23T06:53:15.316Z,23.7
2019-03-23T06:56:21.320Z,23.8
2019-03-23T06:59:27.308Z,23.8
2019-03-23T07:02:33.229Z,23.8
2019-03-23T07:05:39.176Z,23.9
2019-03-23T07:08:45.138Z,23.9
2019-03-23T07:11:51.005Z,23.9
2019-03-23T07:14:56.984Z,23.9
2019-03-23T07:18:02.938Z,24
2019-03-23T07:21:08.852Z,24
2019-03-23T07:24:14.859Z,24
2019-03-23T07:27:20.892Z,24
2019-03-23T07:30:26.856Z,24
2019-03-23T07:33:32.724Z,24.1
2019-03-23T07:36:38.737Z,24.1
2019-03-23T07:39:44.721Z,24.1
2019-03-23T07:42:50.688Z,24.1
2019-03-23T07:45:56.644Z,24.1
2019-03-23T07:49:02.598Z,24.1
2019-03-23T07:52:08.546Z,24.2
2019-03-23T07:55:14.508Z,24.2
2019-03-23T07:58:20.494Z,24.2
2019-03-23T08:01:26.412Z,24.2
2019-03-23T08:04:32.350Z,24.2
2019-03-23T08:07:38.328Z,24.2
2019-03-23T08:10:44.310Z,24.2
2019-03-23T08:13:50.344Z,24.2
2019-03-23T08:16:56.360Z,24.2
2019-03-23T08:20:05.006Z,24.2
2019-03-23T08:23:10.951Z,24.2
2019-03-23T08:26:16.920Z,24.3
2019-03-23T08:29:22.926Z,24.3
2019-03-23T08:32:28.881Z,24.4
2019-03-23T08:35:34.888Z,24.4
2019-03-23T08:38:40.819Z,24.4
2019-03-23T08:41:46.709Z,24.5
2019-03-23T08:44:52.685Z,24.5
2019-03-23T08:47:58.707Z,24.5
2019-03-23T08:51:04.732Z,24.5
2019-03-23T08:54:10.698Z,24.5
2019-03-23T08:57:16.654Z,24.5
2019-03-23T09:00:22.737Z,24.5
2019-03-23T09:03:28.722Z,24.4
2019-03-23T09:06:34.637Z,24.4
2019-03-23T09:09:40.597Z,24.4
2019-03-23T09:13:00.310Z,24.4
2019-03-23T09:16:06.192Z,24.4
2019-03-23T09:19:12.125Z,24.4
2019-03-23T09:22:18.119Z,24.4
2019-03-23T09:25:23.993Z,24.4
2019-03-23T09:28:29.898Z,24.4
2019-03-23T09:31:35.900Z,24.4
2019-03-23T09:34:41.755Z,24.4
2019-03-23T09:37:47.679Z,24.4
2019-03-23T09:40:53.623Z,24.4
2019-03-23T09:43:59.511Z,24.4
2019-03-23T09:47:05.396Z,24.4
2019-03-23T09:50:11.338Z,24.4
2019-03-23T09:53:19.791Z,24.3
2019-03-23T09:56:25.644Z,24.3
2019-03-23T09:59:31.582Z,24.4
2019-03-23T10:02:37.453Z,24.4
2019-03-23T10:05:43.368Z,24.4
2019-03-23T10:08:49.268Z,24.4
2019-03-23T10:11:55.277Z,24.4
2019-03-23T10:15:03.594Z,24.4
2019-03-23T10:18:09.518Z,24.4
2019-03-23T10:21:15.540Z,24.4
2019-03-23T10:24:21.498Z,24.4
2019-03-23T10:27:27.387Z,24.4
2019-03-23T10:30:33.397Z,24.4
2019-03-23T10:33:39.451Z,24.4
2019-03-23T10:36:45.405Z,24.4
2019-03-23T10:39:51.369Z,24.4
2019-03-23T10:42:57.434Z,24.4
2019-03-23T10:46:03.352Z,24.4
2019-03-23T10:49:09.376Z,24.5
2019-03-23T10:52:15.309Z,24.5
2019-03-23T10:55:21.273Z,24.6
2019-03-23T10:58:27.250Z,24.6
2019-03-23T11:01:33.192Z,24.6
2019-03-23T11:04:39.216Z,24.7
2019-03-23T11:07:45.167Z,24.7
2019-03-23T11:10:51.096Z,24.7
2019-03-23T11:13:57.131Z,24.8
2019-03-23T11:17:03.095Z,24.8
2019-03-23T11:20:09.006Z,24.9
2019-03-23T11:23:14.995Z,24.9
2019-03-23T11:26:20.904Z,24.9
2019-03-23T11:29:28.755Z,24.9
2019-03-23T11:32:34.752Z,24.9
2019-03-23T11:35:40.717Z,25
2019-03-23T11:38:46.703Z,25
2019-03-23T11:41:52.585Z,25
2019-03-23T11:44:58.657Z,25
2019-03-23T11:48:04.958Z,25.1
2019-03-23T11:51:11.067Z,25.1
2019-03-23T11:54:17.013Z,25.1
2019-03-23T11:57:23.029Z,25.1
2019-03-23T12:00:29.107Z,25.1
2019-03-23T12:03:35.019Z,25.2
2019-03-23T12:06:40.934Z,25.2
2019-03-23T12:09:46.922Z,25.2
2019-03-23T12:12:52.912Z,25.2
2019-03-23T12:15:58.894Z,25.3
2019-03-23T12:19:04.818Z,25.2
2019-03-23T12:22:10.982Z,25.3
2019-03-23T12:25:17.169Z,25.3
2019-03-23T12:28:23.156Z,25.3
2019-03-23T12:31:31.808Z,25.3
2019-03-23T12:34:37.735Z,25.3
2019-03-23T12:37:43.713Z,25.3
2019-03-23T12:40:49.596Z,25.3
2019-03-23T12:43:55.522Z,25.3
2019-03-23T12:47:01.524Z,25.3
2019-03-23T12:50:07.453Z,25.4
2019-03-23T12:53:13.443Z,25.4
2019-03-23T12:56:20.200Z,25.4
2019-03-23T12:59:26.087Z,25.4
2019-03-23T13:02:32.049Z,25.4
2019-03-23T13:05:38.004Z,25.4
2019-03-23T13:08:43.923Z,25.4
2019-03-23T13:11:49.974Z,25.4
2019-03-23T13:14:55.933Z,25.4
2019-03-23T13:18:03.034Z,25.4
2019-03-23T13:21:09.088Z,25.4
2019-03-23T13:24:15.035Z,25.4
2019-03-23T13:30:26.047Z,25.4
2019-03-23T13:33:32.042Z,25.4
2019-03-23T13:36:37.966Z,25.4
2019-03-23T13:39:43.929Z,25.5
2019-03-23T13:42:49.838Z,25.5
2019-03-23T13:45:55.770Z,25.5
2019-03-23T13:49:01.654Z,25.5
2019-03-23T13:52:07.563Z,25.4
2019-03-23T13:55:16.289Z,25.5
2019-03-23T13:58:22.346Z,25.4
2019-03-23T14:01:28.410Z,25.4
2019-03-23T14:04:34.490Z,25.4
2019-03-23T14:07:40.425Z,25.4
2019-03-23T14:10:46.430Z,25.5
2019-03-23T14:13:52.488Z,25.4
2019-03-23T14:16:58.365Z,25.4
2019-03-23T14:20:04.284Z,25.4
2019-03-23T14:23:10.232Z,25.4
2019-03-23T14:26:16.285Z,25.4
2019-03-23T14:29:22.203Z,25.4
2019-03-23T14:32:28.129Z,25.4
2019-03-23T14:35:34.099Z,25.5
2019-03-23T14:38:39.977Z,25.4
2019-03-23T14:41:45.897Z,25.4
2019-03-23T14:44:51.832Z,25.4
2019-03-23T14:47:57.970Z,25.4
2019-03-23T14:51:06.490Z,25.4
2019-03-23T14:54:15.203Z,25.4
2019-03-23T14:57:21.110Z,25.4
2019-03-23T15:00:27.077Z,25.3
2019-03-23T15:03:33.043Z,25.4
2019-03-23T15:06:39.002Z,25.4
2019-03-23T15:09:44.917Z,25.4
2019-03-23T15:12:50.897Z,25.4
2019-03-23T15:15:56.895Z,25.4
2019-03-23T15:19:02.829Z,25.4
2019-03-23T15:22:08.744Z,25.3
2019-03-23T15:25:14.661Z,25.3
2019-03-23T15:28:20.611Z,25.3
2019-03-23T15:31:26.536Z,25.3
2019-03-23T15:34:35.349Z,25.3
2019-03-23T15:37:41.314Z,25.3
2019-03-23T15:40:47.331Z,25.3
2019-03-23T15:43:53.291Z,25.3
2019-03-23T15:46:59.358Z,25.3
2019-03-23T15:50:05.262Z,25.3
2019-03-23T15:53:11.273Z,25.3
2019-03-23T15:56:17.246Z,25.2
2019-03-23T15:59:23.125Z,25.3
2019-03-23T16:02:29.054Z,25.2
2019-03-23T16:05:34.964Z,25.2
2019-03-23T16:08:40.879Z,25.2
2019-03-23T16:11:46.883Z,25.2
2019-03-23T16:14:52.916Z,25.2
2019-03-23T16:17:58.797Z,25.2
2019-03-23T16:21:07.068Z,25.2
2019-03-23T16:24:12.968Z,25.1
2019-03-23T16:27:18.874Z,25.1
2019-03-23T16:30:24.868Z,25.1
2019-03-23T16:33:30.834Z,25.1
2019-03-23T16:36:36.869Z,25.1
2019-03-23T16:39:42.816Z,25.1
2019-03-23T16:42:48.855Z,25
2019-03-23T16:45:54.832Z,25
2019-03-23T16:49:00.797Z,25
2019-03-23T16:52:09.290Z,25
2019-03-23T16:55:15.217Z,25
2019-03-23T16:58:21.144Z,25
2019-03-23T17:01:27.032Z,25
2019-03-23T17:04:32.963Z,25
2019-03-23T17:07:38.939Z,25
2019-03-23T17:10:44.905Z,25
2019-03-23T17:13:50.788Z,24.9
2019-03-23T17:16:56.817Z,24.9
2019-03-23T17:20:05.226Z,24.9
2019-03-23T17:23:11.120Z,24.9
2019-03-23T17:26:17.037Z,24.9
2019-03-23T17:29:22.978Z,24.9
2019-03-23T17:32:28.951Z,24.8
2019-03-23T17:35:34.858Z,24.8
2019-03-23T17:38:40.777Z,24.8
2019-03-23T17:41:46.771Z,24.8
2019-03-23T17:44:55.660Z,24.8
2019-03-23T17:48:01.607Z,24.8
2019-03-23T17:51:07.568Z,24.7
2019-03-23T17:54:13.487Z,24.7
2019-03-23T17:57:19.498Z,24.7
2019-03-23T18:00:27.391Z,24.7
2019-03-23T18:03:33.355Z,24.7
2019-03-23T18:06:39.293Z,24.7
2019-03-23T18:09:45.233Z,24.6
2019-03-23T18:12:51.175Z,24.6
2019-03-23T18:15:57.131Z,24.6
2019-03-23T18:19:03.011Z,24.5
2019-03-23T18:22:09.079Z,24.5
2019-03-23T18:25:15.109Z,24.4
2019-03-23T18:28:21.118Z,24.3
2019-03-23T18:31:27.011Z,24.3
2019-03-23T18:34:33.013Z,24.2
2019-03-23T18:37:38.964Z,24.2
2019-03-23T18:40:44.885Z,24.1
2019-03-23T18:43:50.968Z,24.1
2019-03-23T18:46:56.843Z,24
2019-03-23T18:50:02.776Z,24
2019-03-23T18:53:08.710Z,23.9
2019-03-23T18:56:14.688Z,23.9
2019-03-23T18:59:20.643Z,23.8
2019-03-23T19:02:29.007Z,23.8
2019-03-23T19:05:34.958Z,23.8
2019-03-23T19:08:40.904Z,23.7
2019-03-23T19:11:46.857Z,23.7
2019-03-23T19:14:52.930Z,23.7
2019-03-23T19:18:01.717Z,23.6
2019-03-23T19:21:07.724Z,23.6
2019-03-23T19:24:13.636Z,23.6
2019-03-23T19:27:19.642Z,23.6
2019-03-23T19:30:25.523Z,23.6
2019-03-23T19:33:31.624Z,23.5
2019-03-23T19:36:37.618Z,23.5
2019-03-23T19:39:43.603Z,23.5
2019-03-23T19:42:49.640Z,23.5
2019-03-23T19:45:55.602Z,23.5
2019-03-23T19:49:01.551Z,23.4
2019-03-23T19:52:07.558Z,23.5
2019-03-23T19:55:13.570Z,23.4
2019-03-23T19:58:19.502Z,23.4
2019-03-23T20:01:25.432Z,23.4
2019-03-23T20:04:31.511Z,23.4
2019-03-23T20:07:37.657Z,23.3
2019-03-23T20:10:43.705Z,23.3
2019-03-23T20:13:58.388Z,23.3
2019-03-23T20:17:04.621Z,23.3
2019-03-23T20:20:10.503Z,23.3
2019-03-23T20:23:16.463Z,23.3
2019-03-23T20:26:22.304Z,23.3
2019-03-23T20:29:30.784Z,23.3
2019-03-23T20:32:36.739Z,23.2
2019-03-23T20:35:42.702Z,23.2
2019-03-23T20:38:48.761Z,23.2
2019-03-23T20:41:54.679Z,23.2
2019-03-23T20:45:00.602Z,23.2
2019-03-23T20:48:06.571Z,23.2
2019-03-23T20:51:12.453Z,23.1
2019-03-23T20:54:18.486Z,23.1
2019-03-23T20:57:24.503Z,23.1
2019-03-23T21:00:41.543Z,23.1
2019-03-23T21:03:47.500Z,23.1
2019-03-23T21:06:53.478Z,23.1
2019-03-23T21:09:59.584Z,23.1
2019-03-23T21:13:05.712Z,23
2019-03-23T21:16:11.738Z,23.1
2019-03-23T21:19:17.700Z,23
2019-03-23T21:22:23.703Z,23
2019-03-23T21:25:29.630Z,23
2019-03-23T21:28:35.637Z,23
2019-03-23T21:31:41.623Z,23
2019-03-23T21:34:47.601Z,23
2019-03-23T21:37:53.677Z,23
2019-03-23T21:40:59.635Z,23
2019-03-23T21:44:05.637Z,23
2019-03-23T21:47:11.687Z,23
2019-03-23T21:50:17.610Z,22.9
2019-03-23T21:53:23.568Z,22.9
2019-03-23T21:56:29.629Z,22.9
2019-03-23T21:59:35.593Z,22.9
2019-03-23T22:02:41.643Z,22.9
2019-03-23T22:05:47.762Z,22.9
2019-03-23T22:08:53.726Z,22.9
2019-03-23T22:11:59.765Z,22.9
2019-03-23T22:15:05.734Z,22.9
2019-03-23T22:18:11.697Z,22.9
2019-03-23T22:21:17.638Z,22.9
2019-03-23T22:24:25.942Z,22.9
2019-03-23T22:27:31.939Z,22.9
2019-03-23T22:30:37.860Z,22.8
2019-03-23T22:33:43.791Z,22.8
2019-03-23T22:36:49.723Z,22.8
2019-03-23T22:39:55.677Z,22.8
2019-03-23T22:43:01.546Z,22.8
2019-03-23T22:46:07.506Z,22.8
2019-03-23T22:49:13.363Z,22.8
2019-03-23T22:52:19.364Z,22.8
2019-03-23T22:55:25.331Z,22.8
2019-03-23T22:58:31.244Z,22.7
2019-03-23T23:01:40.271Z,22.8
2019-03-23T23:04:46.143Z,22.8
2019-03-23T23:07:52.064Z,22.7
2019-03-23T23:10:58.058Z,22.7
2019-03-23T23:14:03.921Z,22.7
2019-03-23T23:17:09.832Z,22.7
2019-03-23T23:20:15.790Z,22.7
2019-03-23T23:23:21.863Z,22.7
2019-03-23T23:26:27.799Z,22.7
2019-03-23T23:29:33.719Z,22.7
2019-03-23T23:32:39.586Z,22.7
2019-03-23T23:35:45.640Z,22.7
2019-03-23T23:38:52.499Z,22.7
2019-03-23T23:41:58.624Z,22.6
2019-03-23T23:45:14.490Z,22.6
2019-03-23T23:48:21.533Z,22.6
2019-03-23T23:51:27.561Z,22.6
2019-03-23T23:54:33.530Z,22.6
2019-03-23T23:57:39.472Z,22.6
